createdAt,value
2019-06-07T00:02:02.990Z,15.20
2019-06-07T00:04:33.073Z,15.19
2019-06-07T00:07:03.247Z,15.25
2019-06-07T00:09:33.299Z,15.26
2019-06-07T00:12:03.425Z,15.27
2019-06-07T00:14:39.500Z,15.20
2019-06-07T00:17:07.784Z,15.16
2019-06-07T00:19:44.791Z,15.07
2019-06-07T00:22:23.665Z,14.98
2019-06-07T00:24:48.165Z,14.99
2019-06-07T00:27:20.623Z,15.02
2019-06-07T00:29:53.586Z,15.01
2019-06-07T00:32:26.994Z,15.01
2019-06-07T00:35:00.542Z,14.91
2019-06-07T00:37:32.917Z,14.81
2019-06-07T00:40:16.386Z,14.73
2019-06-07T00:42:38.846Z,14.71
2019-06-07T00:45:14.704Z,14.62
2019-06-07T00:47:48.896Z,14.58
2019-06-07T00:50:23.452Z,14.50
2019-06-07T00:55:27.210Z,14.36
2019-06-07T00:57:56.103Z,14.28
2019-06-07T01:00:35.539Z,14.26
2019-06-07T01:03:05.712Z,14.21
2019-06-07T01:05:36.293Z,14.12
2019-06-07T01:08:09.414Z,14.11
2019-06-07T01:10:52.939Z,14.11
2019-06-07T01:13:15.471Z,14.14
2019-06-07T01:15:48.774Z,14.14
2019-06-07T01:18:37.746Z,14.14
2019-06-07T01:20:58.631Z,14.12
2019-06-07T01:24:04.693Z,14.08
2019-06-07T01:26:00.884Z,14.01
2019-06-07T01:28:36.640Z,13.92
2019-06-07T01:31:06.696Z,13.83
2019-06-07T01:33:50.433Z,13.77
2019-06-07T01:36:13.030Z,13.77
2019-06-07T01:38:45.764Z,13.73
2019-06-07T01:41:22.076Z,13.75
2019-06-07T01:43:51.382Z,13.80
2019-06-07T01:46:26.669Z,13.79
2019-06-07T01:48:59.538Z,13.75
2019-06-07T01:51:30.718Z,13.70
2019-06-07T01:54:48.726Z,13.69
2019-06-07T01:56:34.962Z,13.66
2019-06-07T01:59:05.115Z,13.65
2019-06-07T02:01:37.583Z,13.64
2019-06-07T02:04:08.425Z,13.62
2019-06-07T02:06:39.227Z,13.61
2019-06-07T02:09:11.870Z,13.58
2019-06-07T02:11:43.407Z,13.54
2019-06-07T02:14:15.213Z,13.49
2019-06-07T02:16:45.481Z,13.45
2019-06-07T02:19:17.068Z,13.40
2019-06-07T02:21:52.398Z,13.37
2019-06-07T02:24:28.849Z,13.34
2019-06-07T02:26:57.622Z,13.31
2019-06-07T02:29:33.532Z,13.26
2019-06-07T02:32:02.670Z,13.25
2019-06-07T02:34:38.599Z,13.14
2019-06-07T02:37:09.447Z,13.03
2019-06-07T02:39:41.014Z,12.91
2019-06-07T02:42:11.493Z,12.84
2019-06-07T02:44:42.759Z,12.78
2019-06-07T02:47:14.766Z,12.70
2019-06-07T02:49:46.753Z,12.70
2019-06-07T02:52:17.098Z,12.70
2019-06-07T02:54:47.080Z,12.73
2019-06-07T02:57:24.918Z,12.77
2019-06-07T03:00:07.831Z,12.76
2019-06-07T03:02:33.496Z,12.70
2019-06-07T03:05:06.804Z,12.59
2019-06-07T03:07:44.823Z,12.20
2019-06-07T03:10:15.685Z,12.20
2019-06-07T03:12:48.742Z,12.16
2019-06-07T03:15:37.350Z,12.10
2019-06-07T03:18:11.118Z,12.08
2019-06-07T03:21:04.332Z,12.13
2019-06-07T03:23:18.279Z,12.21
2019-06-07T03:26:00.150Z,12.22
2019-06-07T03:28:34.253Z,12.22
2019-06-07T03:31:03.414Z,12.24
2019-06-07T03:33:42.816Z,12.11
2019-06-07T03:36:23.468Z,12.04
2019-06-07T03:38:43.063Z,12.07
2019-06-07T03:41:13.252Z,12.11
2019-06-07T03:43:46.066Z,12.13
2019-06-07T03:46:16.192Z,12.21
2019-06-07T03:48:46.674Z,12.31
2019-06-07T03:51:25.374Z,12.45
2019-06-07T03:53:52.205Z,12.61
2019-06-07T03:56:24.292Z,12.73
2019-06-07T03:58:59.171Z,12.84
2019-06-07T04:01:35.574Z,12.89
2019-06-07T04:04:07.996Z,12.82
2019-06-07T04:06:42.382Z,12.72
2019-06-07T04:09:17.062Z,12.56
2019-06-07T04:11:48.680Z,12.65
2019-06-07T04:14:22.035Z,12.67
2019-06-07T04:16:53.643Z,12.74
2019-06-07T04:19:23.668Z,12.81
2019-06-07T04:21:54.138Z,12.93
2019-06-07T04:24:24.629Z,12.93
2019-06-07T04:26:54.628Z,13.03
2019-06-07T04:29:36.511Z,13.06
2019-06-07T04:32:04.391Z,13.13
2019-06-07T04:34:37.517Z,13.15
2019-06-07T04:37:09.718Z,13.26
2019-06-07T04:39:44.935Z,13.35
2019-06-07T04:42:18.246Z,13.50
2019-06-07T04:44:54.463Z,13.56
2019-06-07T04:47:33.347Z,13.74
2019-06-07T04:50:03.711Z,13.89
2019-06-07T04:52:39.861Z,14.13
2019-06-07T04:55:07.677Z,14.32
2019-06-07T04:57:40.384Z,14.53
2019-06-07T05:00:34.298Z,14.63
2019-06-07T05:02:44.572Z,14.78
2019-06-07T05:05:14.591Z,14.89
2019-06-07T05:07:46.354Z,15.08
2019-06-07T05:10:16.924Z,15.31
2019-06-07T05:12:46.942Z,15.63
2019-06-07T05:15:17.282Z,16.03
2019-06-07T05:17:49.236Z,16.39
2019-06-07T05:20:19.374Z,16.74
2019-06-07T05:22:49.456Z,17.00
2019-06-07T05:25:19.554Z,17.22
2019-06-07T05:27:49.543Z,17.43
2019-06-07T05:33:07.044Z,17.58
2019-06-07T05:35:41.071Z,17.72
2019-06-07T05:38:09.766Z,17.80
2019-06-07T05:40:47.971Z,17.64
2019-06-07T05:43:25.509Z,17.61
2019-06-07T05:45:55.678Z,17.55
2019-06-07T05:48:26.804Z,17.51
2019-06-07T05:50:57.718Z,17.45
2019-06-07T05:53:28.052Z,17.33
2019-06-07T05:56:01.088Z,17.32
2019-06-07T05:58:31.108Z,17.35
2019-06-07T06:01:41.701Z,17.20
2019-06-07T06:03:35.059Z,17.26
2019-06-07T06:06:05.170Z,17.30
2019-06-07T06:08:39.477Z,17.10
2019-06-07T06:11:07.156Z,17.22
2019-06-07T06:13:49.396Z,17.15
2019-06-07T06:16:11.831Z,17.11
2019-06-07T06:18:45.768Z,17.21
2019-06-07T06:21:19.464Z,17.26
2019-06-07T06:23:50.838Z,17.36
2019-06-07T06:26:17.639Z,17.30
2019-06-07T06:28:49.745Z,17.50
2019-06-07T06:31:19.339Z,17.51
2019-06-07T06:33:50.143Z,17.49
2019-06-07T06:36:21.252Z,17.65
2019-06-07T06:38:51.817Z,17.68
2019-06-07T06:41:21.972Z,17.74
2019-06-07T06:43:52.844Z,17.84
2019-06-07T06:46:38.244Z,17.78
2019-06-07T06:48:55.651Z,17.79
2019-06-07T06:51:28.900Z,17.78
2019-06-07T06:53:58.929Z,17.90
2019-06-07T06:56:28.950Z,18.04
2019-06-07T06:59:35.072Z,18.24
2019-06-07T07:01:30.841Z,18.40
2019-06-07T07:04:12.146Z,18.42
2019-06-07T07:06:33.737Z,18.30
2019-06-07T07:09:05.091Z,18.43
2019-06-07T07:11:52.245Z,18.39
2019-06-07T07:14:06.877Z,18.54
2019-06-07T07:16:36.886Z,18.48
2019-06-07T07:19:06.877Z,18.52
2019-06-07T07:21:36.895Z,18.51
2019-06-07T07:24:21.250Z,18.70
2019-06-07T07:26:45.207Z,18.88
2019-06-07T07:29:16.297Z,18.77
2019-06-07T07:31:50.265Z,18.77
2019-06-07T07:34:33.723Z,18.99
2019-06-07T07:36:52.936Z,19.07
2019-06-07T07:39:24.303Z,19.09
2019-06-07T07:42:18.217Z,18.78
2019-06-07T07:44:26.013Z,18.89
2019-06-07T07:46:56.754Z,18.97
2019-06-07T07:49:27.914Z,18.89
2019-06-07T07:51:59.038Z,19.04
2019-06-07T07:54:30.326Z,19.05
2019-06-07T07:57:00.336Z,19.29
2019-06-07T07:59:41.959Z,19.52
2019-06-07T08:02:02.762Z,19.71
2019-06-07T08:05:12.672Z,19.86
2019-06-07T08:07:04.937Z,19.91
2019-06-07T08:09:36.591Z,20.07
2019-06-07T08:12:06.588Z,20.23
2019-06-07T08:14:37.215Z,20.03
2019-06-07T08:17:11.697Z,20.11
2019-06-07T08:19:42.792Z,20.31
2019-06-07T08:22:12.786Z,20.37
2019-06-07T08:24:43.034Z,20.26
2019-06-07T08:27:25.894Z,20.15
2019-06-07T08:30:00.608Z,19.97
2019-06-07T08:32:16.440Z,19.81
2019-06-07T08:34:49.071Z,19.79
2019-06-07T08:37:21.157Z,19.91
2019-06-07T08:39:52.847Z,20.12
2019-06-07T08:42:36.500Z,20.18
2019-06-07T08:45:01.581Z,20.20
2019-06-07T08:47:26.358Z,20.25
2019-06-07T08:50:04.393Z,20.44
2019-06-07T08:52:29.629Z,20.56
2019-06-07T08:55:03.381Z,20.41
2019-06-07T08:57:31.579Z,20.69
2019-06-07T09:00:15.007Z,20.96
2019-06-07T09:02:37.071Z,20.87
2019-06-07T09:05:12.321Z,21.12
2019-06-07T09:07:41.154Z,21.30
2019-06-07T09:10:14.392Z,21.52
2019-06-07T09:12:43.749Z,21.47
2019-06-07T09:15:22.902Z,21.68
2019-06-07T09:18:30.635Z,21.42
2019-06-07T09:20:35.775Z,21.42
2019-06-07T09:22:59.052Z,21.40
2019-06-07T09:25:27.806Z,21.70
2019-06-07T09:28:00.552Z,21.93
2019-06-07T09:30:44.013Z,22.01
2019-06-07T09:33:14.467Z,22.27
2019-06-07T09:35:45.617Z,22.39
2019-06-07T09:38:25.768Z,22.59
2019-06-07T09:40:51.962Z,22.12
2019-06-07T09:45:53.964Z,22.07
2019-06-07T09:49:09.159Z,22.15
2019-06-07T09:51:02.108Z,22.16
2019-06-07T09:53:27.564Z,22.32
2019-06-07T09:56:02.846Z,22.54
2019-06-07T09:58:51.128Z,22.39
2019-06-07T10:03:33.279Z,22.65
2019-06-07T10:06:12.362Z,22.64
2019-06-07T10:11:08.973Z,22.68
2019-06-07T10:13:39.472Z,22.73
2019-06-07T10:16:12.851Z,22.55
2019-06-07T10:18:43.257Z,22.33
2019-06-07T10:21:15.128Z,22.05
2019-06-07T10:23:45.111Z,21.98
2019-06-07T10:26:15.194Z,21.91
2019-06-07T10:28:46.798Z,22.00
2019-06-07T10:31:16.954Z,22.16
2019-06-07T10:33:46.959Z,22.40
2019-06-07T10:36:17.159Z,22.32
2019-06-07T10:38:48.704Z,22.62
2019-06-07T10:41:19.015Z,22.69
2019-06-07T10:43:49.091Z,22.83
2019-06-07T10:46:19.187Z,22.72
2019-06-07T10:48:49.612Z,22.90
2019-06-07T10:51:21.179Z,22.92
2019-06-07T10:53:51.191Z,23.06
2019-06-07T10:56:21.191Z,23.04
2019-06-07T10:58:51.271Z,22.79
2019-06-07T11:01:21.302Z,22.87
2019-06-07T11:03:51.362Z,22.59
2019-06-07T11:06:24.242Z,22.68
2019-06-07T11:08:54.229Z,22.83
2019-06-07T11:11:24.267Z,22.89
2019-06-07T11:13:54.266Z,22.88
2019-06-07T11:16:24.582Z,22.88
2019-06-07T11:18:54.835Z,23.11
2019-06-07T11:21:24.946Z,23.10
2019-06-07T11:23:57.857Z,23.31
2019-06-07T11:26:30.628Z,23.38
2019-06-07T11:29:00.702Z,23.41
2019-06-07T11:31:31.513Z,23.35
2019-06-07T11:34:03.850Z,23.41
2019-06-07T11:36:33.927Z,23.44
2019-06-07T11:39:15.418Z,23.58
2019-06-07T11:41:45.421Z,23.65
2019-06-07T11:44:15.426Z,23.73
2019-06-07T11:46:45.514Z,23.79
2019-06-07T11:49:21.963Z,23.81
2019-06-07T11:51:53.824Z,23.74
2019-06-07T11:54:24.805Z,23.83
2019-06-07T11:56:55.772Z,23.67
2019-06-07T11:59:25.772Z,23.62
2019-06-07T12:01:58.342Z,23.73
2019-06-07T12:04:34.572Z,23.86
2019-06-07T12:07:00.875Z,23.91
2019-06-07T12:09:30.965Z,24.22
2019-06-07T12:12:00.969Z,24.20
2019-06-07T12:14:31.088Z,24.44
2019-06-07T12:17:01.225Z,24.26
2019-06-07T12:19:31.408Z,24.01
2019-06-07T12:22:01.482Z,23.86
2019-06-07T12:24:33.142Z,23.89
2019-06-07T12:27:03.163Z,24.18
2019-06-07T12:29:34.041Z,24.21
2019-06-07T12:32:04.297Z,24.26
2019-06-07T12:37:39.329Z,24.20
2019-06-07T12:39:55.138Z,24.34
2019-06-07T12:42:25.169Z,24.56
2019-06-07T12:45:01.396Z,24.54
2019-06-07T12:47:31.949Z,24.51
2019-06-07T12:50:01.993Z,24.61
2019-06-07T12:52:32.083Z,24.73
2019-06-07T12:55:02.279Z,24.78
2019-06-07T12:57:35.658Z,24.77
2019-06-07T13:00:13.917Z,24.67
2019-06-07T13:02:44.337Z,24.58
2019-06-07T13:05:15.329Z,24.44
2019-06-07T13:07:45.465Z,24.43
2019-06-07T13:10:17.900Z,24.65
2019-06-07T13:12:48.108Z,24.75
2019-06-07T13:15:20.692Z,24.85
2019-06-07T13:17:50.162Z,24.73
2019-06-07T13:20:20.583Z,24.71
2019-06-07T13:22:50.674Z,24.87
2019-06-07T13:25:41.151Z,24.64
2019-06-07T13:27:55.843Z,24.77
2019-06-07T13:30:26.159Z,25.05
2019-06-07T13:33:01.908Z,24.97
2019-06-07T13:35:31.617Z,25.26
2019-06-07T13:38:01.657Z,25.31
2019-06-07T13:40:34.475Z,25.28
2019-06-07T13:43:06.799Z,25.42
2019-06-07T13:45:36.825Z,25.50
2019-06-07T13:48:06.930Z,25.16
2019-06-07T13:50:36.934Z,24.71
2019-06-07T13:53:07.026Z,24.69
2019-06-07T13:55:39.156Z,24.84
2019-06-07T13:58:10.228Z,24.84
2019-06-07T14:00:41.830Z,24.75
2019-06-07T14:03:15.670Z,24.67
2019-06-07T14:05:48.450Z,24.88
2019-06-07T14:08:23.333Z,24.98
2019-06-07T14:10:56.496Z,25.13
2019-06-07T14:13:28.073Z,24.90
2019-06-07T14:16:03.247Z,24.88
2019-06-07T14:18:33.235Z,25.26
2019-06-07T14:21:03.325Z,25.55
2019-06-07T14:23:48.161Z,25.56
2019-06-07T14:26:06.616Z,25.57
2019-06-07T14:28:36.635Z,25.78
2019-06-07T14:31:06.625Z,25.82
2019-06-07T14:33:36.622Z,25.72
2019-06-07T14:36:06.710Z,25.67
2019-06-07T14:38:37.655Z,25.80
2019-06-07T14:41:08.108Z,25.91
2019-06-07T14:43:40.263Z,26.03
2019-06-07T14:46:10.906Z,26.07
2019-06-07T14:48:43.902Z,26.16
2019-06-07T14:51:17.210Z,26.01
2019-06-07T14:53:48.787Z,25.99
2019-06-07T14:56:24.896Z,25.78
2019-06-07T14:58:58.365Z,25.62
2019-06-07T15:01:33.357Z,25.93
2019-06-07T15:04:05.245Z,26.04
2019-06-07T15:06:36.663Z,25.99
2019-06-07T15:09:07.875Z,26.16
2019-06-07T15:11:39.226Z,26.15
2019-06-07T15:14:09.384Z,26.17
2019-06-07T15:16:39.436Z,25.96
2019-06-07T15:19:13.696Z,25.90
2019-06-07T15:21:44.281Z,25.83
2019-06-07T15:24:14.766Z,25.74
2019-06-07T15:26:44.767Z,25.94
2019-06-07T15:29:16.489Z,26.14
2019-06-07T15:31:46.597Z,26.23
2019-06-07T15:34:16.592Z,26.30
2019-06-07T15:36:46.889Z,26.11
2019-06-07T15:39:16.928Z,26.10
2019-06-07T15:41:51.513Z,25.98
2019-06-07T15:44:22.014Z,25.89
2019-06-07T15:46:52.029Z,25.99
2019-06-07T15:49:22.056Z,25.81
2019-06-07T15:51:52.055Z,26.01
2019-06-07T15:54:22.086Z,25.88
2019-06-07T15:56:52.104Z,25.90
2019-06-07T15:59:22.133Z,25.99
2019-06-07T16:01:59.409Z,25.76
2019-06-07T16:04:29.509Z,25.52
2019-06-07T16:06:59.606Z,25.52
2019-06-07T16:09:29.873Z,25.44
2019-06-07T16:11:59.908Z,25.46
2019-06-07T16:14:29.937Z,25.34
2019-06-07T16:16:59.946Z,25.16
2019-06-07T16:19:30.058Z,25.12
2019-06-07T16:22:00.062Z,25.25
2019-06-07T16:24:30.086Z,25.31
2019-06-07T16:27:00.095Z,25.31
2019-06-07T16:29:30.186Z,25.22
2019-06-07T16:32:00.210Z,25.28
2019-06-07T16:34:30.235Z,25.31
2019-06-07T16:37:00.408Z,25.27
2019-06-07T16:39:33.223Z,25.24
2019-06-07T16:42:05.072Z,25.43
2019-06-07T16:44:40.768Z,25.44
2019-06-07T16:47:10.862Z,25.36
2019-06-07T16:49:41.149Z,25.40
2019-06-07T16:52:12.801Z,25.40
2019-06-07T16:54:43.602Z,25.39
2019-06-07T16:57:13.861Z,25.31
2019-06-07T16:59:49.199Z,25.34
2019-06-07T17:02:18.929Z,25.26
2019-06-07T17:04:48.966Z,25.17
2019-06-07T17:07:19.042Z,25.13
2019-06-07T17:09:50.030Z,24.99
2019-06-07T17:12:23.296Z,24.96
2019-06-07T17:14:53.346Z,24.81
2019-06-07T17:17:23.375Z,24.84
2019-06-07T17:19:55.082Z,24.81
2019-06-07T17:22:25.166Z,24.77
2019-06-07T17:24:55.242Z,24.73
2019-06-07T17:27:25.279Z,24.78
2019-06-07T17:29:55.360Z,24.68
2019-06-07T17:32:25.588Z,24.64
2019-06-07T17:34:55.597Z,24.61
2019-06-07T17:37:25.624Z,24.51
2019-06-07T17:39:55.718Z,24.46
2019-06-07T17:42:25.760Z,24.31
2019-06-07T17:44:55.898Z,24.32
2019-06-07T17:47:25.963Z,24.26
2019-06-07T17:49:55.985Z,24.22
2019-06-07T17:52:26.017Z,24.12
2019-06-07T17:54:56.124Z,24.02
2019-06-07T17:57:26.142Z,24.08
2019-06-07T17:59:57.262Z,24.02
2019-06-07T18:02:29.284Z,23.95
2019-06-07T18:05:01.307Z,23.90
2019-06-07T18:07:32.218Z,23.90
2019-06-07T18:10:03.980Z,23.86
2019-06-07T18:12:34.002Z,23.79
2019-06-07T18:15:08.745Z,23.76
2019-06-07T18:17:38.838Z,23.71
2019-06-07T18:20:09.821Z,23.78
2019-06-07T18:22:39.898Z,23.78
2019-06-07T18:25:10.680Z,23.68
2019-06-07T18:27:40.711Z,23.63
2019-06-07T18:30:12.225Z,23.59
2019-06-07T18:32:42.432Z,23.50
2019-06-07T18:35:12.536Z,23.53
2019-06-07T18:37:42.576Z,23.44
2019-06-07T18:40:12.744Z,23.40
2019-06-07T18:42:42.759Z,23.37
2019-06-07T18:45:13.224Z,23.36
2019-06-07T18:47:43.246Z,23.27
2019-06-07T18:50:13.350Z,23.22
2019-06-07T18:52:46.564Z,23.18
2019-06-07T18:55:19.787Z,23.20
2019-06-07T18:57:50.167Z,23.11
2019-06-07T19:00:22.408Z,23.05
2019-06-07T19:02:53.881Z,23.06
2019-06-07T19:05:24.242Z,22.96
2019-06-07T19:07:54.668Z,22.95
2019-06-07T19:10:26.787Z,22.91
2019-06-07T19:13:00.345Z,22.83
2019-06-07T19:15:31.444Z,22.84
2019-06-07T19:18:01.866Z,22.74
2019-06-07T19:20:33.719Z,22.72
2019-06-07T19:23:04.471Z,22.67
2019-06-07T19:25:34.903Z,22.66
2019-06-07T19:28:05.218Z,22.60
2019-06-07T19:30:35.253Z,22.54
2019-06-07T19:33:05.971Z,22.49
2019-06-07T19:35:37.718Z,22.49
2019-06-07T19:38:09.677Z,22.50
2019-06-07T19:40:40.538Z,22.48
2019-06-07T19:43:12.207Z,22.42
2019-06-07T19:45:42.466Z,22.45
2019-06-07T19:48:12.582Z,22.47
2019-06-07T19:50:42.666Z,22.45
2019-06-07T19:53:13.768Z,22.46
2019-06-07T19:55:46.913Z,22.42
2019-06-07T19:58:18.822Z,22.37
2019-06-07T20:00:48.818Z,22.41
2019-06-07T20:03:19.111Z,22.34
2019-06-07T20:05:49.335Z,22.32
2019-06-07T20:08:19.446Z,22.27
2019-06-07T20:10:49.460Z,22.28
2019-06-07T20:13:20.589Z,22.27
2019-06-07T20:15:50.610Z,22.23
2019-06-07T20:18:22.208Z,22.26
2019-06-07T20:20:56.351Z,22.21
2019-06-07T20:23:26.465Z,22.17
2019-06-07T20:25:56.538Z,22.14
2019-06-07T20:28:26.824Z,22.14
2019-06-07T20:30:57.713Z,22.09
2019-06-07T20:33:30.880Z,22.13
2019-06-07T20:36:00.950Z,22.04
2019-06-07T20:38:30.994Z,21.96
2019-06-07T20:41:01.215Z,22.05
2019-06-07T20:43:31.388Z,21.84
2019-06-07T20:46:03.796Z,21.08
2019-06-07T20:48:37.735Z,20.67
2019-06-07T20:51:09.340Z,20.02
2019-06-07T20:53:39.780Z,18.91
2019-06-07T20:56:09.781Z,18.11
2019-06-07T20:58:39.808Z,17.49
2019-06-07T21:01:09.790Z,16.92
2019-06-07T21:03:40.042Z,16.63
2019-06-07T21:06:10.094Z,16.60
2019-06-07T21:08:40.142Z,16.57
2019-06-07T21:11:10.161Z,16.57
2019-06-07T21:13:40.292Z,16.61
2019-06-07T21:16:10.534Z,16.65
2019-06-07T21:18:40.588Z,16.70
2019-06-07T21:21:10.734Z,16.66
2019-06-07T21:23:42.526Z,16.33
2019-06-07T21:26:12.536Z,16.28
2019-06-07T21:28:42.623Z,16.20
2019-06-07T21:31:14.150Z,16.08
2019-06-07T21:33:44.155Z,16.05
2019-06-07T21:36:14.163Z,16.03
2019-06-07T21:38:44.243Z,16.00
2019-06-07T21:41:15.803Z,16.06
2019-06-07T21:43:45.810Z,16.04
2019-06-07T21:46:20.580Z,16.01
2019-06-07T21:48:47.707Z,16.09
2019-06-07T21:51:17.795Z,16.20
2019-06-07T21:53:47.785Z,16.26
2019-06-07T21:56:17.828Z,16.29
2019-06-07T21:58:47.822Z,16.28
2019-06-07T22:01:20.062Z,16.32
2019-06-07T22:03:50.155Z,16.42
2019-06-07T22:06:20.316Z,16.52
2019-06-07T22:08:50.388Z,16.49
2019-06-07T22:11:20.489Z,16.47
2019-06-07T22:13:50.556Z,16.53
2019-06-07T22:16:28.225Z,16.62
2019-06-07T22:18:52.410Z,16.68
2019-06-07T22:21:22.378Z,16.69
2019-06-07T22:23:52.386Z,16.64
2019-06-07T22:26:22.381Z,16.68
2019-06-07T22:28:52.397Z,16.66
2019-06-07T22:31:22.385Z,16.61
2019-06-07T22:33:52.400Z,16.54
2019-06-07T22:36:22.399Z,16.49
2019-06-07T22:38:52.433Z,16.47
2019-06-07T22:41:22.419Z,16.44
2019-06-07T22:43:52.506Z,16.44
2019-06-07T22:46:36.445Z,16.47
2019-06-07T22:48:54.514Z,16.39
2019-06-07T22:51:24.570Z,16.37
2019-06-07T22:53:54.569Z,16.37
2019-06-07T22:56:44.060Z,16.43
2019-06-07T22:59:16.974Z,16.40
2019-06-07T23:01:45.832Z,16.30
2019-06-07T23:04:16.700Z,16.34
2019-06-07T23:06:47.849Z,16.43
2019-06-07T23:09:19.681Z,16.41
2019-06-07T23:11:49.749Z,16.49
2019-06-07T23:14:19.818Z,16.48
2019-06-07T23:16:55.317Z,16.41
2019-06-07T23:19:25.961Z,16.41
2019-06-07T23:21:56.598Z,16.42
2019-06-07T23:24:26.636Z,16.36
2019-06-07T23:26:57.090Z,16.34
2019-06-07T23:29:27.104Z,16.36
2019-06-07T23:31:57.091Z,16.29
2019-06-07T23:34:27.120Z,16.28
2019-06-07T23:36:57.759Z,16.26
2019-06-07T23:39:27.754Z,16.23
2019-06-07T23:41:57.775Z,16.25
2019-06-07T23:44:27.767Z,16.26
2019-06-07T23:47:10.709Z,16.23
2019-06-07T23:49:32.647Z,16.30
2019-06-07T23:52:03.738Z,16.28
2019-06-07T23:54:33.811Z,16.21
2019-06-07T23:57:03.894Z,16.15
2019-06-07T23:59:34.528Z,16.11
